Terminal Aerodrome Forecast
Issued by NWS

Home | Current Version | Previous Version | Graphics & Text | Print | Product List | Glossary On
Versions: 1 2 3 4 5 6 7 8 9 10 11 12 13 14 15
000
FTUS45 KGGW 200536
TAFSDY
TAF
KSDY 200536Z 2006/2106 22005KT P6SM FEW090 SCT250
     FM201500 26004KT 2SM BR BKN130
     FM201900 30006KT P6SM BKN120
     FM210200 29004KT 1/2SM FG BKN020=

USA.gov is the U.S. government's official web portal to all federal, state and local government web resources and services.